Muskogee, OK

6:15 PM CDT on September 19, 2014 (GMT -0500)
N David Lane | Change Station
CLOSE
Current Station
Personal Weather Station
Location: Muskogee, OK
Elevation: 600 ft
Nearby Weather Stations

Elev 600 ft 35.75 °N, 95.33 °W | Updated 4 seconds ago

Partly Cloudy
Partly Cloudy
79.3 °F
Feels Like 83 °F
N
4.0
Wind Variable Wind from ESE
Gusts 5.0 mph

Today
High -- | Low -- °F
--% Chance of Precip.
Yesterday
High -- | Low -- °F
Precip. -- in
7:07 AM 7:22 PM
Waning Crescent, 16% visible
Pressure 29.95 in
Visibility 10.0 miles
Clouds Clear
Heat Index 83 °F
Dew Point 72 °F
Humidity 78%
Rainfall 0.00 in
Snow Depth Not available.
UV 0.0 out of 12
Pollen 9.70 out of 12
Air Quality Not available.
Flu Activity Not available.
METAR KMKO 192253Z AUTO 13007KT 10SM CLR 27/21 A2997 RMK AO2 SLP141 T02670206

More Conditions Fewer Conditions

Pressure 29.95 in
Visibility 10.0 miles
Clouds Clear
Heat Index 83 °F
Dew Point 72 °F
Humidity 78%
Rainfall 0.00 in
Snow Depth Not available.
UV 0.0 out of 12
Pollen 9.70 out of 12
Air Quality Not available.
Flu Activity Not available.
METAR KMKO 192253Z AUTO 13007KT 10SM CLR 27/21 A2997 RMK AO2 SLP141 T02670206

More Conditions Fewer Conditions

10-Day Weather Forecast

Almanac

Astronomy

Sep. 19, 2014 Rise Set
Actual Time 7:07 AM CDT 7:22 PM CDT
Civil Twilight 6:41 AM CDT 7:48 PM CDT
Nautical Twilight 6:11 AM CDT 8:18 PM CDT
Astronomical Twilight 5:41 AM CDT 8:48 PM CDT
Moon 3:00 AM CDT 4:46 PM CDT
Length of Visible Light 13h 06m
Length of Day
12h 15m
Tomorrow will be 2m 14s shorter.
Waning Crescent, 16% of the Moon is Illuminated
Today
Waning Crescent
Sep 24
New
Oct 1
First Quarter
Oct 8
Full
Oct 15
Last Quarter

Today's Extremes

State Highs State Lows

Community

WunderPhotos

Upload Photos

1,754,724 photos uploaded!

Nearby

Snow Depth

Station Depth Elevation
No new snow has been reported.

Earthquake Activity

City Distance Mag. Time & Date
Luther, Oklahoma 96 miles 2.7 4:47 PM CDT
2014-09-19
Jones, Oklahoma 106 miles 2.8 1:13 AM CDT
2014-09-19
Perry, Oklahoma 109 miles 3.3 12:08 AM CDT
2014-09-19
Perry, Oklahoma 110 miles 3.4 2:52 PM CDT
2014-09-18
Minimum magnitude displayed is 2.5.

Coastal Water Temperatures

Place Temperature
No Stations Reporting

Nearby Weather Stations